Time;durP1;ratioP1;P1;durP2;ratioP2;P2;SDS_P1;SDS_P2;PMS_P1;PMS_P2;Temp;Humidity;BMP_temperature;BMP_pressure;BME280_temperature;BME280_humidity;BME280_pressure;Samples;Min_cycle;Max_cycle;Signal;HPM_P1;HPM_P2
2022/08/03 00:00:40;;;;;;;7.00;5.25;;;;;;;;;;2058398;28;20659;-66
2022/08/03 00:01:40;;;;;;;5.55;5.05;;;;;;;;;;2058742;28;20198;-69
2022/08/03 00:02:41;;;;;;;5.47;5.03;;;;;;;;;;2058663;28;20705;-69
2022/08/03 00:03:41;;;;;;;4.97;4.68;;;;;;;;;;2058561;28;20385;-67
2022/08/03 00:04:41;;;;;;;5.13;4.72;;;;;;;;;;2058581;28;20583;-67
2022/08/03 00:05:42;;;;;;;5.30;4.60;;;;;;;;;;2059111;28;20170;-69
2022/08/03 00:06:42;;;;;;;5.00;4.70;;;;;;;;;;2058258;28;20638;-67
2022/08/03 00:07:42;;;;;;;5.25;4.93;;;;;;;;;;2058801;28;20180;-66
2022/08/03 00:08:43;;;;;;;5.38;4.88;;;;;;;;;;2058894;28;20253;-67
2022/08/03 00:09:43;;;;;;;5.75;5.03;;;;;;;;;;2058499;28;20277;-68
2022/08/03 00:10:44;;;;;;;5.63;5.07;;;;;;;;;;2058371;28;20166;-68
2022/08/03 00:11:44;;;;;;;5.70;5.20;;;;;;;;;;2058985;28;20178;-68
2022/08/03 00:12:44;;;;;;;5.22;4.72;;;;;;;;;;2058826;28;20180;-66
2022/08/03 00:13:45;;;;;;;5.10;4.70;;;;;;;;;;2058927;28;20257;-66
2022/08/03 00:14:45;;;;;;;5.68;5.10;;;;;;;;;;2057875;28;20182;-66
2022/08/03 00:15:46;;;;;;;5.47;5.07;;;;;;;;;;2058828;28;20197;-67
2022/08/03 00:16:46;;;;;;;5.32;4.93;;;;;;;;;;2058821;28;20279;-67
2022/08/03 00:17:46;;;;;;;5.78;5.38;;;;;;;;;;2058611;28;20209;-67
2022/08/03 00:18:46;;;;;;;5.25;4.72;;;;;;;;;;2058552;28;20167;-66
2022/08/03 00:19:47;;;;;;;5.43;4.93;;;;;;;;;;2058169;28;20206;-67
2022/08/03 00:20:47;;;;;;;5.32;4.97;;;;;;;;;;2058233;28;20293;-69
2022/08/03 00:21:47;;;;;;;6.15;5.65;;;;;;;;;;2059352;28;20202;-67
2022/08/03 00:22:48;;;;;;;6.00;5.50;;;;;;;;;;2059112;28;20257;-67
2022/08/03 00:23:48;;;;;;;5.57;5.18;;;;;;;;;;2059035;28;20660;-67
2022/08/03 00:24:49;;;;;;;5.40;5.00;;;;;;;;;;2057813;28;20714;-67
2022/08/03 00:25:49;;;;;;;6.60;6.00;;;;;;;;;;2058471;28;20201;-68
2022/08/03 00:26:49;;;;;;;6.07;5.68;;;;;;;;;;2058226;28;20179;-68
2022/08/03 00:27:50;;;;;;;5.93;5.53;;;;;;;;;;2050083;29;20187;-67
2022/08/03 00:28:50;;;;;;;5.60;5.25;;;;;;;;;;2057759;28;20174;-66
2022/08/03 00:29:50;;;;;;;7.13;5.75;;;;;;;;;;2057766;28;20679;-67
2022/08/03 00:30:51;;;;;;;7.82;6.07;;;;;;;;;;2057830;28;20801;-66
2022/08/03 00:31:51;;;;;;;6.50;5.80;;;;;;;;;;2057675;28;20174;-67
2022/08/03 00:32:51;;;;;;;6.43;5.93;;;;;;;;;;2049785;29;20586;-68
2022/08/03 00:33:52;;;;;;;6.32;5.57;;;;;;;;;;2057504;28;20171;-63
2022/08/03 00:34:52;;;;;;;6.63;5.45;;;;;;;;;;2057091;28;20197;-67
2022/08/03 00:35:52;;;;;;;5.40;5.10;;;;;;;;;;2057764;28;20557;-68
2022/08/03 00:36:53;;;;;;;6.38;5.60;;;;;;;;;;2058448;28;20249;-67
2022/08/03 00:37:53;;;;;;;7.82;6.13;;;;;;;;;;2058468;28;20600;-67
2022/08/03 00:38:54;;;;;;;6.10;5.60;;;;;;;;;;2058723;28;20228;-68
2022/08/03 00:39:54;;;;;;;6.35;5.78;;;;;;;;;;2058938;28;20237;-67
2022/08/03 00:40:55;;;;;;;5.63;5.22;;;;;;;;;;2058778;28;20242;-68
2022/08/03 00:41:55;;;;;;;6.10;5.70;;;;;;;;;;2059117;28;20180;-67
2022/08/03 00:42:56;;;;;;;5.47;5.18;;;;;;;;;;2058438;28;20298;-66
2022/08/03 00:43:57;;;;;;;6.68;5.97;;;;;;;;;;2058202;28;20939;-66
2022/08/03 00:44:57;;;;;;;5.80;5.40;;;;;;;;;;2058272;28;20166;-69
2022/08/03 00:45:57;;;;;;;6.30;5.80;;;;;;;;;;2058910;28;20222;-69
2022/08/03 00:46:58;;;;;;;6.45;6.00;;;;;;;;;;2058562;28;20182;-67
2022/08/03 00:47:58;;;;;;;5.82;5.30;;;;;;;;;;2058923;28;20170;-66
2022/08/03 00:48:59;;;;;;;6.30;5.88;;;;;;;;;;2058750;28;20467;-66
2022/08/03 00:49:59;;;;;;;6.40;5.97;;;;;;;;;;2058646;28;20172;-67
2022/08/03 00:50:59;;;;;;;6.25;5.85;;;;;;;;;;2058588;28;20159;-67
2022/08/03 00:52:00;;;;;;;6.25;5.78;;;;;;;;;;2058548;28;20231;-69
2022/08/03 00:53:02;;;;;;;6.50;5.95;;;;;;;;;;2058437;28;20174;-67
2022/08/03 00:54:02;;;;;;;6.57;6.00;;;;;;;;;;2056851;28;20212;-66
2022/08/03 00:55:03;;;;;;;6.07;5.57;;;;;;;;;;2057637;28;20800;-67
2022/08/03 00:56:03;;;;;;;6.32;5.82;;;;;;;;;;2057444;28;20170;-67
2022/08/03 00:57:04;;;;;;;5.32;4.93;;;;;;;;;;2057845;28;20253;-66
2022/08/03 00:58:05;;;;;;;6.05;5.55;;;;;;;;;;2058196;28;20166;-67
2022/08/03 00:59:06;;;;;;;6.68;6.07;;;;;;;;;;2058434;28;20537;-67
2022/08/03 01:00:07;;;;;;;6.13;5.63;;;;;;;;;;2057981;28;20201;-68
2022/08/03 01:01:07;;;;;;;6.25;5.75;;;;;;;;;;2057584;28;20174;-67
2022/08/03 01:02:07;;;;;;;7.40;6.00;;;;;;;;;;2057434;28;20254;-67
2022/08/03 01:03:09;;;;;;;6.15;5.70;;;;;;;;;;2058149;28;20705;-68
2022/08/03 01:04:09;;;;;;;6.07;5.40;;;;;;;;;;2057279;28;20170;-67
2022/08/03 01:05:09;;;;;;;5.95;5.55;;;;;;;;;;2058095;28;20643;-67
2022/08/03 01:06:10;;;;;;;6.38;5.80;;;;;;;;;;2057989;28;20644;-67
2022/08/03 01:07:20;;;;;;;5.95;5.22;;;;;;;;;;2057856;28;20244;-67
2022/08/03 01:08:43;;;;;;;6.47;5.88;;;;;;;;;;2065724;28;20232;-67
2022/08/03 01:09:43;;;;;;;6.63;5.90;;;;;;;;;;2065850;28;20674;-68
2022/08/03 01:10:50;;;;;;;6.13;5.63;;;;;;;;;;2065101;28;20176;-67
2022/08/03 01:11:59;;;;;;;6.25;5.75;;;;;;;;;;2065447;28;20256;-67
2022/08/03 01:13:12;;;;;;;5.68;5.28;;;;;;;;;;2065422;28;20189;-67
2022/08/03 01:14:14;;;;;;;7.18;6.57;;;;;;;;;;2065235;28;20782;-68
2022/08/03 01:15:21;;;;;;;6.50;6.00;;;;;;;;;;2066055;28;20677;-68
2022/08/03 01:16:24;;;;;;;6.32;5.82;;;;;;;;;;2066218;28;20170;-68
2022/08/03 01:17:30;;;;;;;7.10;6.38;;;;;;;;;;2066182;28;20212;-67
2022/08/03 01:18:52;;;;;;;5.95;5.50;;;;;;;;;;2065868;28;20220;-66
2022/08/03 01:20:09;;;;;;;6.95;6.35;;;;;;;;;;2057347;28;20220;-68
2022/08/03 01:21:16;;;;;;;6.03;5.53;;;;;;;;;;2059523;28;20205;-66
2022/08/03 01:22:27;;;;;;;6.75;5.82;;;;;;;;;;2063974;28;20189;-68
2022/08/03 01:23:46;;;;;;;5.68;5.22;;;;;;;;;;2065969;28;20245;-68
2022/08/03 01:24:53;;;;;;;6.03;5.57;;;;;;;;;;2065057;28;20249;-67
2022/08/03 01:26:13;;;;;;;6.63;6.13;;;;;;;;;;2065944;28;20158;-67
2022/08/03 01:27:17;;;;;;;6.18;5.68;;;;;;;;;;2065670;28;20173;-65
2022/08/03 01:28:32;;;;;;;5.70;5.20;;;;;;;;;;2065201;28;20177;-67
2022/08/03 01:29:33;;;;;;;6.18;5.78;;;;;;;;;;2065317;28;20221;-68
2022/08/03 01:30:35;;;;;;;6.10;5.65;;;;;;;;;;2065728;28;20639;-66
2022/08/03 01:31:37;;;;;;;6.85;6.18;;;;;;;;;;2065151;28;20276;-66
2022/08/03 01:32:38;;;;;;;6.47;5.90;;;;;;;;;;2065431;28;20174;-66
2022/08/03 01:33:40;;;;;;;6.85;6.30;;;;;;;;;;2073532;28;20212;-65
2022/08/03 01:34:44;;;;;;;5.82;5.38;;;;;;;;;;2064443;28;20182;-68
2022/08/03 01:35:47;;;;;;;6.07;5.68;;;;;;;;;;2065282;28;20169;-68
2022/08/03 01:36:52;;;;;;;6.70;6.05;;;;;;;;;;2065781;28;20197;-67
2022/08/03 01:37:57;;;;;;;6.72;6.13;;;;;;;;;;2065899;28;20236;-67
2022/08/03 01:38:59;;;;;;;6.55;5.95;;;;;;;;;;2065704;28;20717;-67
2022/08/03 01:40:01;;;;;;;6.93;6.32;;;;;;;;;;2065779;28;20666;-67
2022/08/03 01:41:04;;;;;;;6.15;5.65;;;;;;;;;;2065576;28;20192;-67
2022/08/03 01:42:06;;;;;;;7.13;6.53;;;;;;;;;;2065211;28;20165;-67
2022/08/03 01:43:07;;;;;;;6.45;5.78;;;;;;;;;;2065011;28;20166;-67
2022/08/03 01:44:09;;;;;;;7.50;6.60;;;;;;;;;;2065002;28;20176;-67
2022/08/03 01:45:10;;;;;;;10.57;6.28;;;;;;;;;;2065913;28;20174;-67
2022/08/03 01:46:11;;;;;;;6.32;5.72;;;;;;;;;;2065227;28;20260;-67
2022/08/03 01:47:12;;;;;;;6.70;6.20;;;;;;;;;;2065233;28;20709;-67
2022/08/03 01:48:14;;;;;;;6.45;6.00;;;;;;;;;;2065791;28;20557;-66
2022/08/03 01:49:15;;;;;;;11.75;6.30;;;;;;;;;;2065681;28;20165;-66
2022/08/03 01:50:19;;;;;;;5.95;5.55;;;;;;;;;;2062975;28;21726;-66
2022/08/03 01:51:21;;;;;;;6.30;5.68;;;;;;;;;;2057736;28;20174;-68
2022/08/03 01:52:21;;;;;;;6.75;6.22;;;;;;;;;;2057883;28;20178;-66
2022/08/03 01:53:22;;;;;;;6.25;5.70;;;;;;;;;;2057444;28;20563;-68
2022/08/03 01:54:23;;;;;;;6.75;5.72;;;;;;;;;;2056459;28;20181;-68
2022/08/03 01:55:26;;;;;;;6.95;6.35;;;;;;;;;;2057281;28;20221;-67
2022/08/03 01:56:27;;;;;;;6.30;5.90;;;;;;;;;;2057096;28;20175;-68
2022/08/03 01:57:28;;;;;;;6.82;6.32;;;;;;;;;;2056841;28;20631;-67
2022/08/03 01:58:30;;;;;;;6.40;5.93;;;;;;;;;;2056378;28;20193;-67
2022/08/03 01:59:33;;;;;;;6.57;6.07;;;;;;;;;;2056552;28;20217;-66
2022/08/03 02:00:35;;;;;;;6.72;6.22;;;;;;;;;;2057392;28;20679;-66
2022/08/03 02:01:36;;;;;;;6.35;5.70;;;;;;;;;;2057632;28;20206;-66
2022/08/03 02:02:37;;;;;;;7.22;5.78;;;;;;;;;;2057535;28;20166;-68
2022/08/03 02:03:39;;;;;;;6.95;5.53;;;;;;;;;;2058310;28;20190;-64
2022/08/03 02:04:41;;;;;;;5.82;5.43;;;;;;;;;;2056953;28;20551;-66
2022/08/03 02:05:43;;;;;;;7.10;6.00;;;;;;;;;;2057313;28;20868;-66
2022/08/03 02:06:45;;;;;;;6.15;5.65;;;;;;;;;;2057487;28;20647;-66
2022/08/03 02:07:47;;;;;;;6.97;6.30;;;;;;;;;;2057681;28;20182;-68
2022/08/03 02:08:47;;;;;;;6.65;6.15;;;;;;;;;;2057360;28;20178;-67
2022/08/03 02:09:49;;;;;;;6.50;6.00;;;;;;;;;;2055560;28;20206;-67
2022/08/03 02:10:50;;;;;;;6.28;5.60;;;;;;;;;;2056776;28;20658;-66
2022/08/03 02:11:51;;;;;;;6.35;5.85;;;;;;;;;;2057322;28;20183;-68
2022/08/03 02:12:52;;;;;;;6.20;5.80;;;;;;;;;;2056728;28;20182;-66
2022/08/03 02:13:53;;;;;;;7.93;6.20;;;;;;;;;;2056433;28;20174;-66
2022/08/03 02:14:55;;;;;;;6.22;5.82;;;;;;;;;;2056356;28;20560;-68
2022/08/03 02:15:56;;;;;;;6.97;6.35;;;;;;;;;;2048953;28;20179;-67
2022/08/03 02:16:57;;;;;;;6.32;5.82;;;;;;;;;;2056872;28;20201;-67
2022/08/03 02:17:59;;;;;;;7.10;6.00;;;;;;;;;;2057415;28;20189;-67
2022/08/03 02:19:00;;;;;;;6.40;5.82;;;;;;;;;;2057091;28;20579;-67
2022/08/03 02:20:01;;;;;;;7.25;6.55;;;;;;;;;;2056721;28;20695;-67
2022/08/03 02:21:03;;;;;;;6.43;6.03;;;;;;;;;;2056595;28;20254;-67
2022/08/03 02:22:04;;;;;;;6.43;6.00;;;;;;;;;;2057344;28;20221;-67
2022/08/03 02:23:06;;;;;;;6.30;5.75;;;;;;;;;;2057309;28;20154;-65
2022/08/03 02:24:07;;;;;;;6.78;6.18;;;;;;;;;;2055829;28;20174;-68
2022/08/03 02:25:09;;;;;;;6.35;5.85;;;;;;;;;;2056627;28;20217;-67
2022/08/03 02:26:11;;;;;;;6.88;6.38;;;;;;;;;;2057302;28;20584;-67
2022/08/03 02:27:22;;;;;;;6.82;6.25;;;;;;;;;;2057223;28;20175;-68
2022/08/03 02:28:36;;;;;;;7.10;6.50;;;;;;;;;;2056672;28;20266;-67
2022/08/03 02:29:37;;;;;;;6.43;6.03;;;;;;;;;;2050465;28;20206;-72
2022/08/03 02:30:39;;;;;;;7.32;6.18;;;;;;;;;;2056624;28;20194;-67
2022/08/03 02:31:41;;;;;;;7.00;6.30;;;;;;;;;;2057308;28;20205;-67
2022/08/03 02:32:44;;;;;;;6.70;6.13;;;;;;;;;;2057204;28;20178;-66
2022/08/03 02:33:47;;;;;;;6.35;5.85;;;;;;;;;;2057276;28;20257;-66
2022/08/03 02:34:50;;;;;;;6.75;6.10;;;;;;;;;;2056443;28;20210;-66
2022/08/03 02:35:51;;;;;;;6.20;5.70;;;;;;;;;;2057426;28;20658;-67
2022/08/03 02:36:52;;;;;;;6.65;6.15;;;;;;;;;;2057141;28;20174;-65
2022/08/03 02:37:57;;;;;;;6.80;6.30;;;;;;;;;;2057374;28;20184;-69
2022/08/03 02:38:58;;;;;;;6.72;6.13;;;;;;;;;;2056639;28;20189;-67
2022/08/03 02:40:01;;;;;;;8.50;6.72;;;;;;;;;;2056669;28;20586;-68
2022/08/03 02:41:03;;;;;;;7.18;6.57;;;;;;;;;;2057128;28;20205;-68
2022/08/03 02:42:06;;;;;;;6.45;5.95;;;;;;;;;;2057268;28;20245;-67
2022/08/03 02:43:09;;;;;;;6.60;6.05;;;;;;;;;;2057291;28;20162;-66
2022/08/03 02:44:10;;;;;;;6.47;5.95;;;;;;;;;;2055993;28;20651;-68
2022/08/03 02:45:13;;;;;;;7.00;6.00;;;;;;;;;;2056686;28;20176;-67
2022/08/03 02:46:16;;;;;;;6.50;5.93;;;;;;;;;;2057534;28;20174;-69
2022/08/03 02:47:19;;;;;;;6.03;5.53;;;;;;;;;;2057696;28;20282;-67
2022/08/03 02:48:22;;;;;;;6.57;5.97;;;;;;;;;;2057428;28;20194;-69
2022/08/03 02:49:23;;;;;;;6.88;6.30;;;;;;;;;;2057159;28;20186;-67
2022/08/03 02:50:24;;;;;;;7.05;6.32;;;;;;;;;;2057453;28;20170;-68
2022/08/03 02:51:26;;;;;;;6.45;5.95;;;;;;;;;;2057480;28;20174;-67
2022/08/03 02:52:27;;;;;;;6.60;6.15;;;;;;;;;;2057260;28;20174;-70
2022/08/03 02:53:28;;;;;;;6.50;6.00;;;;;;;;;;2056596;28;20237;-67
2022/08/03 02:54:29;;;;;;;7.72;7.05;;;;;;;;;;2055827;28;20189;-67
2022/08/03 02:55:30;;;;;;;7.10;6.40;;;;;;;;;;2057196;28;20178;-68
2022/08/03 02:56:31;;;;;;;6.28;5.70;;;;;;;;;;2057052;28;20170;-68
2022/08/03 02:57:33;;;;;;;6.88;6.22;;;;;;;;;;2057321;28;20674;-69
2022/08/03 02:58:35;;;;;;;7.00;6.40;;;;;;;;;;2056480;28;20173;-69
2022/08/03 02:59:36;;;;;;;7.20;6.60;;;;;;;;;;2056515;28;20206;-68
2022/08/03 03:00:36;;;;;;;6.80;6.30;;;;;;;;;;2057110;28;20498;-66
2022/08/03 03:01:37;;;;;;;7.20;6.50;;;;;;;;;;2056484;28;20233;-67
2022/08/03 03:02:38;;;;;;;7.00;6.40;;;;;;;;;;2056450;28;20185;-67
2022/08/03 03:03:39;;;;;;;7.45;6.88;;;;;;;;;;2057333;28;20196;-68
2022/08/03 03:04:40;;;;;;;7.10;6.50;;;;;;;;;;2056822;28;20170;-66
2022/08/03 03:05:40;;;;;;;8.20;6.80;;;;;;;;;;2057553;28;20269;-65
2022/08/03 03:06:41;;;;;;;7.85;6.05;;;;;;;;;;2057148;28;20195;-67
2022/08/03 03:07:42;;;;;;;6.60;6.07;;;;;;;;;;2059851;28;20617;-67
2022/08/03 03:08:42;;;;;;;7.07;6.50;;;;;;;;;;2065149;28;20296;-67
2022/08/03 03:09:43;;;;;;;7.32;6.70;;;;;;;;;;2064944;28;20185;-68
2022/08/03 03:10:44;;;;;;;6.95;6.40;;;;;;;;;;2064113;28;20177;-68
2022/08/03 03:11:44;;;;;;;6.97;6.47;;;;;;;;;;2066671;28;20220;-67
2022/08/03 03:12:45;;;;;;;8.00;6.93;;;;;;;;;;2067023;28;20227;-67
2022/08/03 03:13:47;;;;;;;7.78;6.57;;;;;;;;;;2066826;28;20221;-66
2022/08/03 03:14:47;;;;;;;8.05;7.30;;;;;;;;;;2066135;28;20272;-69
2022/08/03 03:15:48;;;;;;;8.98;7.35;;;;;;;;;;2066962;28;20240;-66
2022/08/03 03:16:50;;;;;;;7.32;6.75;;;;;;;;;;2066745;28;20192;-68
2022/08/03 03:17:50;;;;;;;7.38;6.70;;;;;;;;;;2067402;28;20172;-66
2022/08/03 03:18:53;;;;;;;7.45;6.75;;;;;;;;;;2066979;28;20173;-68
2022/08/03 03:19:54;;;;;;;7.55;6.95;;;;;;;;;;2066910;28;20268;-69
2022/08/03 03:20:55;;;;;;;7.60;6.90;;;;;;;;;;2066962;28;20634;-67
2022/08/03 03:21:57;;;;;;;7.45;6.93;;;;;;;;;;2066799;28;20295;-69
2022/08/03 03:22:58;;;;;;;7.63;6.93;;;;;;;;;;2066699;28;20255;-66
2022/08/03 03:23:59;;;;;;;7.75;6.93;;;;;;;;;;2066367;28;20653;-65
2022/08/03 03:25:00;;;;;;;7.38;6.88;;;;;;;;;;2066670;28;20209;-68
2022/08/03 03:26:01;;;;;;;7.55;6.93;;;;;;;;;;2066951;28;20170;-68
2022/08/03 03:27:02;;;;;;;7.90;7.20;;;;;;;;;;2066857;28;20174;-69
2022/08/03 03:28:03;;;;;;;7.30;6.63;;;;;;;;;;2067043;28;20169;-68
2022/08/03 03:29:03;;;;;;;8.35;7.65;;;;;;;;;;2066659;28;20208;-67
2022/08/03 03:30:04;;;;;;;14.10;7.07;;;;;;;;;;2066962;28;20173;-68
2022/08/03 03:31:05;;;;;;;7.68;7.07;;;;;;;;;;2067020;28;20169;-68
2022/08/03 03:32:05;;;;;;;7.68;7.00;;;;;;;;;;2058727;28;20197;-67
2022/08/03 03:33:06;;;;;;;8.18;7.47;;;;;;;;;;2058405;28;20180;-68
2022/08/03 03:34:06;;;;;;;7.72;7.03;;;;;;;;;;2065756;28;20173;-69
2022/08/03 03:35:08;;;;;;;7.85;7.03;;;;;;;;;;2058146;28;20698;-66
2022/08/03 03:36:09;;;;;;;9.88;7.15;;;;;;;;;;2066309;28;20169;-67
2022/08/03 03:37:09;;;;;;;7.45;6.85;;;;;;;;;;2066793;28;20169;-66
2022/08/03 03:38:10;;;;;;;9.35;8.45;;;;;;;;;;2066895;28;20181;-69
2022/08/03 03:39:10;;;;;;;8.82;7.95;;;;;;;;;;2066679;28;20165;-67
2022/08/03 03:40:11;;;;;;;8.40;7.70;;;;;;;;;;2066312;28;20174;-67
2022/08/03 03:41:11;;;;;;;6.90;6.40;;;;;;;;;;2066238;28;20173;-67
2022/08/03 03:42:12;;;;;;;8.35;7.65;;;;;;;;;;2066769;28;20261;-67
2022/08/03 03:43:12;;;;;;;9.10;8.20;;;;;;;;;;2066740;28;20264;-68
2022/08/03 03:44:13;;;;;;;7.90;7.20;;;;;;;;;;2066036;28;20235;-67
2022/08/03 03:45:13;;;;;;;9.10;8.20;;;;;;;;;;2066820;28;20174;-67
2022/08/03 03:46:13;;;;;;;9.65;7.45;;;;;;;;;;2066854;28;20173;-68
2022/08/03 03:47:14;;;;;;;8.82;7.93;;;;;;;;;;2066059;28;20165;-66
2022/08/03 03:48:14;;;;;;;8.20;7.40;;;;;;;;;;2066345;28;20165;-67
2022/08/03 03:49:14;;;;;;;9.40;7.82;;;;;;;;;;2066705;28;20178;-68
2022/08/03 03:50:16;;;;;;;8.65;7.85;;;;;;;;;;2064290;28;20248;-68
2022/08/03 03:51:17;;;;;;;8.40;7.70;;;;;;;;;;2058830;28;20651;-69
2022/08/03 03:52:17;;;;;;;7.85;7.25;;;;;;;;;;2058339;28;20205;-67
2022/08/03 03:53:18;;;;;;;8.82;7.90;;;;;;;;;;2059001;28;20174;-66
2022/08/03 03:54:18;;;;;;;8.38;7.57;;;;;;;;;;2057765;28;20206;-66
2022/08/03 03:55:18;;;;;;;7.88;7.28;;;;;;;;;;2058563;28;20259;-66
2022/08/03 03:56:19;;;;;;;8.43;7.63;;;;;;;;;;2058447;28;20245;-69
2022/08/03 03:57:19;;;;;;;8.05;7.40;;;;;;;;;;2058770;28;20261;-67
2022/08/03 03:58:20;;;;;;;8.30;7.65;;;;;;;;;;2058549;28;20171;-68
2022/08/03 03:59:20;;;;;;;8.32;7.45;;;;;;;;;;2057534;28;20291;-68
2022/08/03 04:00:21;;;;;;;7.82;7.22;;;;;;;;;;2057694;28;20201;-67
2022/08/03 04:01:21;;;;;;;8.82;8.00;;;;;;;;;;2058427;28;20727;-66
2022/08/03 04:02:22;;;;;;;8.52;7.55;;;;;;;;;;2058382;28;20186;-68
2022/08/03 04:03:22;;;;;;;8.23;7.45;;;;;;;;;;2058402;28;20221;-68
2022/08/03 04:11:01;;;;;;;8.15;7.43;;;;;;;;;;2058468;28;20177;-69
2022/08/03 04:12:03;;;;;;;8.05;7.45;;;;;;;;;;2058422;28;20249;-67
2022/08/03 04:13:06;;;;;;;7.80;6.95;;;;;;;;;;2058586;28;20188;-66
2022/08/03 04:14:17;;;;;;;8.90;8.02;;;;;;;;;;2057574;28;20236;-67
2022/08/03 04:15:19;;;;;;;8.00;7.40;;;;;;;;;;2058489;28;20643;-68
2022/08/03 04:16:21;;;;;;;7.80;7.30;;;;;;;;;;2058336;28;20166;-67
2022/08/03 04:17:22;;;;;;;7.97;7.28;;;;;;;;;;2058398;28;20687;-67
2022/08/03 04:18:24;;;;;;;7.85;7.25;;;;;;;;;;2058230;28;20177;-66
2022/08/03 04:19:31;;;;;;;7.80;7.10;;;;;;;;;;2058216;28;20285;-66
2022/08/03 04:20:32;;;;;;;7.60;6.97;;;;;;;;;;2058204;28;20544;-67
2022/08/03 04:21:34;;;;;;;8.10;7.40;;;;;;;;;;2058207;28;20244;-67
2022/08/03 04:22:35;;;;;;;13.52;7.00;;;;;;;;;;2057967;28;20178;-68
2022/08/03 04:23:38;;;;;;;7.85;7.13;;;;;;;;;;2058565;28;20302;-68
2022/08/03 04:24:42;;;;;;;9.02;7.15;;;;;;;;;;2057815;28;20170;-67
2022/08/03 04:25:42;;;;;;;7.38;6.85;;;;;;;;;;2060801;28;20196;-66
2022/08/03 04:26:44;;;;;;;8.13;7.43;;;;;;;;;;2058795;28;20167;-67
2022/08/03 04:27:46;;;;;;;8.35;7.70;;;;;;;;;;2058705;28;20182;-67
2022/08/03 04:28:49;;;;;;;8.40;7.40;;;;;;;;;;2058337;28;20260;-68
2022/08/03 04:29:51;;;;;;;8.60;7.35;;;;;;;;;;2058238;28;20194;-68
2022/08/03 04:30:52;;;;;;;7.78;7.10;;;;;;;;;;2057548;28;20171;-69
2022/08/03 04:31:53;;;;;;;9.45;7.78;;;;;;;;;;2057602;28;20166;-69
2022/08/03 04:32:56;;;;;;;8.23;7.53;;;;;;;;;;2057992;28;20554;-68
2022/08/03 04:33:57;;;;;;;8.93;8.20;;;;;;;;;;2057774;28;20197;-67
2022/08/03 04:34:57;;;;;;;8.32;7.72;;;;;;;;;;2057861;28;20162;-67
2022/08/03 04:35:59;;;;;;;8.38;7.68;;;;;;;;;;2058409;28;20178;-66
2022/08/03 04:37:01;;;;;;;8.38;7.60;;;;;;;;;;2058221;28;20177;-67
2022/08/03 04:38:04;;;;;;;7.85;7.15;;;;;;;;;;2058508;28;20563;-68
2022/08/03 04:39:11;;;;;;;8.10;7.30;;;;;;;;;;2058043;28;20167;-67
2022/08/03 04:40:13;;;;;;;8.32;7.50;;;;;;;;;;2058371;28;20178;-66
2022/08/03 04:41:13;;;;;;;7.95;7.35;;;;;;;;;;2058469;28;20189;-66
2022/08/03 04:42:14;;;;;;;8.77;7.93;;;;;;;;;;2057911;28;20718;-66
2022/08/03 04:43:17;;;;;;;8.68;7.95;;;;;;;;;;2057930;28;20193;-68
2022/08/03 04:44:18;;;;;;;9.43;7.55;;;;;;;;;;2057873;28;20190;-68
2022/08/03 04:45:19;;;;;;;9.30;8.02;;;;;;;;;;2058407;28;20166;-68
2022/08/03 04:46:21;;;;;;;8.18;7.45;;;;;;;;;;2058580;28;20213;-68
2022/08/03 04:47:21;;;;;;;8.82;8.13;;;;;;;;;;2058315;28;20245;-66
2022/08/03 04:48:22;;;;;;;8.45;7.75;;;;;;;;;;2058384;28;20710;-68
2022/08/03 04:49:22;;;;;;;8.90;8.15;;;;;;;;;;2058040;28;20214;-67
2022/08/03 04:50:23;;;;;;;8.07;7.47;;;;;;;;;;2058281;28;20532;-66
2022/08/03 04:51:44;;;;;;;8.35;7.63;;;;;;;;;;2057916;28;20241;-66
2022/08/03 04:52:44;;;;;;;7.93;7.32;;;;;;;;;;2058253;28;20204;-67
2022/08/03 04:53:45;;;;;;;8.30;7.50;;;;;;;;;;2057406;28;20742;-67
2022/08/03 04:54:45;;;;;;;8.30;7.70;;;;;;;;;;2056882;28;20174;-67
2022/08/03 04:55:45;;;;;;;9.15;8.35;;;;;;;;;;2058420;28;20213;-67
2022/08/03 04:56:46;;;;;;;7.72;7.13;;;;;;;;;;2058121;28;20221;-69
2022/08/03 04:57:46;;;;;;;7.93;7.32;;;;;;;;;;2049700;29;20174;-68
2022/08/03 04:58:46;;;;;;;7.50;6.90;;;;;;;;;;2057597;28;20621;-66
2022/08/03 04:59:51;;;;;;;7.60;6.97;;;;;;;;;;2059458;28;20228;-64
2022/08/03 05:00:51;;;;;;;7.72;7.03;;;;;;;;;;2057637;28;20170;-65
2022/08/03 05:01:52;;;;;;;7.82;7.22;;;;;;;;;;2057294;28;20210;-64
2022/08/03 05:02:55;;;;;;;7.80;7.05;;;;;;;;;;2057367;28;20163;-64
2022/08/03 05:03:55;;;;;;;10.02;7.22;;;;;;;;;;2057083;28;20233;-65
2022/08/03 05:04:56;;;;;;;8.85;7.72;;;;;;;;;;2056996;28;20675;-60
2022/08/03 05:05:56;;;;;;;8.48;7.20;;;;;;;;;;2057538;28;20552;-67
2022/08/03 05:06:57;;;;;;;7.90;7.18;;;;;;;;;;2048867;29;20210;-60
2022/08/03 05:07:57;;;;;;;7.93;7.22;;;;;;;;;;2050970;28;20183;-62
2022/08/03 05:08:57;;;;;;;8.43;7.35;;;;;;;;;;2054196;28;20175;-65
2022/08/03 05:09:57;;;;;;;10.90;7.40;;;;;;;;;;2050595;28;20267;-64
2022/08/03 05:10:58;;;;;;;7.82;6.68;;;;;;;;;;2052890;28;20177;-57
2022/08/03 05:11:58;;;;;;;8.20;7.30;;;;;;;;;;2057575;28;20583;-63
2022/08/03 05:12:58;;;;;;;7.22;6.53;;;;;;;;;;2056973;28;20178;-63
2022/08/03 05:13:59;;;;;;;7.13;6.63;;;;;;;;;;2056096;28;20174;-62
2022/08/03 05:15:00;;;;;;;9.30;7.40;;;;;;;;;;2057353;28;20261;-63
2022/08/03 05:16:00;;;;;;;8.35;7.47;;;;;;;;;;2057569;28;20171;-61
2022/08/03 05:17:01;;;;;;;7.38;6.78;;;;;;;;;;2057846;28;20191;-65
2022/08/03 05:18:01;;;;;;;7.85;7.13;;;;;;;;;;2057528;28;20189;-65
2022/08/03 05:19:04;;;;;;;7.35;6.75;;;;;;;;;;2057284;28;20167;-67
2022/08/03 05:20:04;;;;;;;8.98;8.18;;;;;;;;;;2057276;28;20597;-66
2022/08/03 05:21:05;;;;;;;11.82;10.73;;;;;;;;;;2057890;28;20170;-64
2022/08/03 05:22:05;;;;;;;9.52;8.75;;;;;;;;;;2057719;28;20304;-65
2022/08/03 05:23:05;;;;;;;7.75;6.85;;;;;;;;;;2057582;28;20225;-64
2022/08/03 05:24:05;;;;;;;8.68;7.88;;;;;;;;;;2057263;28;20178;-66
2022/08/03 05:25:06;;;;;;;7.82;7.07;;;;;;;;;;2057373;28;20197;-65
2022/08/03 05:26:06;;;;;;;8.35;7.45;;;;;;;;;;2058374;28;20247;-61
2022/08/03 05:27:07;;;;;;;8.77;6.97;;;;;;;;;;2058126;28;20228;-64
2022/08/03 05:28:07;;;;;;;8.23;7.20;;;;;;;;;;2058138;28;20174;-64
2022/08/03 05:29:07;;;;;;;8.35;7.50;;;;;;;;;;2058281;28;20166;-63
2022/08/03 05:30:08;;;;;;;8.77;6.68;;;;;;;;;;2058912;28;20192;-64
2022/08/03 05:31:08;;;;;;;8.25;7.30;;;;;;;;;;2057746;28;20188;-65
2022/08/03 05:32:09;;;;;;;7.40;6.50;;;;;;;;;;2057973;28;20171;-64
2022/08/03 05:33:09;;;;;;;8.48;7.68;;;;;;;;;;2057603;28;20174;-64
2022/08/03 05:34:10;;;;;;;9.13;8.23;;;;;;;;;;2056001;28;20797;-59
2022/08/03 05:35:10;;;;;;;7.57;6.78;;;;;;;;;;2057402;28;20233;-65
2022/08/03 05:36:11;;;;;;;10.07;8.20;;;;;;;;;;2057204;28;20182;-65
2022/08/03 05:37:11;;;;;;;8.18;7.55;;;;;;;;;;2057148;28;20170;-65
2022/08/03 05:38:12;;;;;;;7.68;6.80;;;;;;;;;;2057401;28;20178;-64
2022/08/03 05:39:15;;;;;;;8.13;7.43;;;;;;;;;;2057196;28;20567;-64
2022/08/03 05:40:15;;;;;;;8.30;7.55;;;;;;;;;;2057283;28;20174;-64
2022/08/03 05:41:15;;;;;;;8.70;7.22;;;;;;;;;;2057749;28;20289;-65
2022/08/03 05:42:16;;;;;;;8.95;7.47;;;;;;;;;;2057393;28;20768;-64
2022/08/03 05:43:16;;;;;;;11.23;7.30;;;;;;;;;;2056595;28;20177;-65
2022/08/03 05:44:16;;;;;;;7.15;6.35;;;;;;;;;;2064177;28;20718;-62
2022/08/03 05:45:17;;;;;;;7.18;6.38;;;;;;;;;;2057769;28;20226;-61
2022/08/03 05:46:23;;;;;;;7.63;5.95;;;;;;;;;;2057940;28;20166;-65
2022/08/03 05:47:24;;;;;;;7.57;6.80;;;;;;;;;;2057237;28;20177;-65
2022/08/03 05:48:24;;;;;;;10.90;6.85;;;;;;;;;;2057667;28;20694;-66
2022/08/03 05:49:24;;;;;;;7.28;6.68;;;;;;;;;;2057653;28;20703;-64
2022/08/03 05:50:25;;;;;;;8.93;8.23;;;;;;;;;;2057666;28;20590;-63
2022/08/03 05:51:25;;;;;;;7.20;6.50;;;;;;;;;;2057642;28;20178;-64
2022/08/03 05:52:26;;;;;;;8.30;6.45;;;;;;;;;;2058373;28;20670;-63
2022/08/03 05:53:26;;;;;;;6.40;5.75;;;;;;;;;;2058544;28;20182;-66
2022/08/03 05:54:27;;;;;;;7.75;5.75;;;;;;;;;;2058620;28;20562;-61
2022/08/03 05:55:27;;;;;;;6.18;5.22;;;;;;;;;;2058437;28;20179;-63
2022/08/03 05:56:28;;;;;;;7.68;6.05;;;;;;;;;;2059978;28;20608;-67
2022/08/03 05:57:28;;;;;;;5.50;5.03;;;;;;;;;;2058951;28;20245;-61
2022/08/03 05:58:28;;;;;;;6.00;5.10;;;;;;;;;;2055698;28;20534;-65
2022/08/03 05:59:28;;;;;;;8.48;5.57;;;;;;;;;;2048338;29;20206;-64
2022/08/03 06:00:29;;;;;;;7.82;5.55;;;;;;;;;;2055262;28;20509;-63
2022/08/03 06:01:31;;;;;;;9.00;6.13;;;;;;;;;;2059677;28;20294;-63
2022/08/03 06:02:32;;;;;;;5.80;5.10;;;;;;;;;;2058461;28;20182;-67
2022/08/03 06:03:32;;;;;;;6.05;5.45;;;;;;;;;;2058724;28;20178;-66
2022/08/03 06:04:32;;;;;;;5.25;4.85;;;;;;;;;;2057452;28;20166;-66
2022/08/03 06:05:35;;;;;;;5.80;5.30;;;;;;;;;;2058487;28;20178;-63
2022/08/03 06:06:35;;;;;;;7.72;5.57;;;;;;;;;;2058406;28;20206;-64
2022/08/03 06:07:36;;;;;;;6.00;4.95;;;;;;;;;;2058387;28;20577;-66
2022/08/03 06:08:37;;;;;;;5.30;4.68;;;;;;;;;;2057212;28;20193;-65
2022/08/03 06:09:37;;;;;;;6.93;5.13;;;;;;;;;;2058126;28;20578;-65
2022/08/03 06:10:37;;;;;;;6.93;5.28;;;;;;;;;;2057088;28;20197;-67
2022/08/03 06:11:39;;;;;;;5.35;4.70;;;;;;;;;;2058221;28;20174;-67
2022/08/03 06:12:40;;;;;;;5.65;5.00;;;;;;;;;;2059308;28;20170;-65
2022/08/03 06:13:40;;;;;;;7.88;5.00;;;;;;;;;;2058697;28;20253;-64
2022/08/03 06:14:41;;;;;;;10.02;5.10;;;;;;;;;;2065115;28;20253;-67
2022/08/03 06:15:41;;;;;;;5.72;4.68;;;;;;;;;;2066018;28;20169;-63
2022/08/03 06:16:41;;;;;;;5.80;4.72;;;;;;;;;;2059028;28;20174;-65